createdAt,value
2022-10-13T00:00:53.096Z,2.27
2022-10-13T00:03:21.305Z,2.77
2022-10-13T00:05:51.889Z,2.80
2022-10-13T00:08:22.417Z,2.43
2022-10-13T00:10:52.678Z,2.43
2022-10-13T00:13:22.006Z,3.43
2022-10-13T00:15:50.377Z,2.50
2022-10-13T00:18:18.579Z,2.30
2022-10-13T00:20:49.182Z,2.23
2022-10-13T00:23:18.536Z,2.30
2022-10-13T00:25:48.154Z,2.70
2022-10-13T00:28:19.703Z,2.80
2022-10-13T00:30:48.866Z,2.43
2022-10-13T00:33:16.999Z,2.30
2022-10-13T00:35:47.380Z,2.50
2022-10-13T00:38:17.081Z,2.20
2022-10-13T00:40:46.740Z,2.50
2022-10-13T00:43:27.716Z,2.17
2022-10-13T00:45:56.153Z,2.40
2022-10-13T00:48:28.756Z,2.40
2022-10-13T00:50:58.332Z,2.60
2022-10-13T00:53:31.780Z,2.37
2022-10-13T00:56:00.495Z,2.50
2022-10-13T00:58:32.926Z,2.20
2022-10-13T01:01:02.098Z,2.20
2022-10-13T01:03:30.323Z,2.17
2022-10-13T01:06:01.917Z,2.50
2022-10-13T01:08:30.747Z,2.30
2022-10-13T01:11:10.064Z,2.30
2022-10-13T01:13:45.812Z,2.13
2022-10-13T01:16:23.673Z,2.30
2022-10-13T01:18:58.266Z,2.30
2022-10-13T01:21:32.432Z,2.30
2022-10-13T01:24:31.420Z,2.30
2022-10-13T01:27:19.391Z,2.33
2022-10-13T01:30:06.452Z,2.47
2022-10-13T01:32:45.078Z,2.53
2022-10-13T01:35:17.777Z,2.70
2022-10-13T01:37:54.135Z,2.27
2022-10-13T01:40:27.389Z,2.47
2022-10-13T01:43:00.465Z,2.37
2022-10-13T01:45:37.582Z,2.30
2022-10-13T01:48:09.057Z,2.20
2022-10-13T01:50:38.404Z,2.20
2022-10-13T01:53:08.030Z,2.40
2022-10-13T01:55:36.172Z,2.30
2022-10-13T01:58:04.284Z,2.90
2022-10-13T02:00:42.476Z,2.30
2022-10-13T02:03:21.575Z,2.20
2022-10-13T02:05:59.215Z,2.20
2022-10-13T02:08:32.908Z,2.23
2022-10-13T02:11:11.052Z,2.60
2022-10-13T02:13:45.567Z,2.20
2022-10-13T02:16:17.086Z,2.03
2022-10-13T02:18:45.906Z,2.10
2022-10-13T02:21:14.070Z,2.10
2022-10-13T02:23:44.207Z,2.20
2022-10-13T02:26:12.854Z,2.33
2022-10-13T02:28:41.907Z,2.53
2022-10-13T02:31:10.657Z,2.20
2022-10-13T02:33:40.108Z,2.60
2022-10-13T02:36:08.284Z,2.30
2022-10-13T02:38:36.490Z,2.40
2022-10-13T02:41:04.623Z,2.40
2022-10-13T02:43:33.932Z,2.27
2022-10-13T02:46:02.307Z,2.27
2022-10-13T02:48:33.236Z,2.37
2022-10-13T02:51:02.739Z,2.37
2022-10-13T02:53:30.836Z,2.10
2022-10-13T02:55:59.687Z,2.40
2022-10-13T02:58:27.920Z,2.40
2022-10-13T03:00:56.008Z,2.40
2022-10-13T03:03:24.343Z,2.60
2022-10-13T03:05:52.590Z,2.40
2022-10-13T03:08:22.116Z,2.40
2022-10-13T03:10:50.288Z,2.70
2022-10-13T03:13:19.605Z,2.50
2022-10-13T03:15:48.403Z,2.40
2022-10-13T03:18:16.492Z,2.50
2022-10-13T03:20:44.929Z,2.77
2022-10-13T03:23:13.118Z,2.70
2022-10-13T03:25:42.767Z,2.70
2022-10-13T03:28:10.894Z,2.57
2022-10-13T03:30:39.048Z,2.50
2022-10-13T03:33:07.250Z,2.80
2022-10-13T03:35:35.299Z,2.37
2022-10-13T03:38:03.380Z,2.60
2022-10-13T03:40:31.500Z,2.67
2022-10-13T03:43:00.951Z,2.50
2022-10-13T03:45:31.403Z,2.50
2022-10-13T03:47:59.722Z,2.40
2022-10-13T03:50:27.933Z,2.53
2022-10-13T03:52:56.159Z,2.40
2022-10-13T03:55:24.845Z,2.57
2022-10-13T03:57:53.059Z,2.10
2022-10-13T04:00:23.319Z,2.53
2022-10-13T04:02:51.739Z,2.57
2022-10-13T04:05:19.877Z,2.53
2022-10-13T04:07:47.953Z,2.43
2022-10-13T04:10:16.096Z,2.00
2022-10-13T04:12:44.411Z,2.27
2022-10-13T04:15:12.908Z,2.30
2022-10-13T04:17:42.381Z,2.17
2022-10-13T04:20:11.731Z,2.23
2022-10-13T04:22:39.868Z,2.40
2022-10-13T04:25:09.166Z,2.60
2022-10-13T04:27:38.545Z,3.30
2022-10-13T04:30:08.072Z,2.90
2022-10-13T04:32:36.200Z,3.63
2022-10-13T04:35:06.665Z,3.17
2022-10-13T04:37:34.743Z,3.13
2022-10-13T04:40:02.886Z,2.50
2022-10-13T04:42:31.022Z,2.60
2022-10-13T04:44:59.106Z,2.80
2022-10-13T04:47:27.249Z,2.93
2022-10-13T04:49:55.370Z,2.97
2022-10-13T04:52:24.870Z,3.10
2022-10-13T04:54:52.941Z,2.83
2022-10-13T04:57:21.426Z,2.73
2022-10-13T04:59:50.039Z,2.67
2022-10-13T05:02:18.823Z,2.93
2022-10-13T05:04:47.339Z,2.63
2022-10-13T05:07:18.337Z,2.90
2022-10-13T05:09:48.277Z,3.00
2022-10-13T05:12:16.820Z,2.63
2022-10-13T05:14:45.438Z,2.70
2022-10-13T05:17:13.528Z,2.83
2022-10-13T05:19:41.717Z,2.73
2022-10-13T05:22:10.194Z,2.33
2022-10-13T05:24:38.641Z,2.90
2022-10-13T05:27:11.204Z,3.20
2022-10-13T05:29:39.956Z,3.13
2022-10-13T05:32:09.296Z,3.33
2022-10-13T05:34:37.362Z,2.90
2022-10-13T05:37:05.737Z,2.73
2022-10-13T05:39:33.993Z,3.07
2022-10-13T05:42:02.132Z,2.77
2022-10-13T05:44:31.751Z,2.73
2022-10-13T05:47:03.662Z,2.67
2022-10-13T05:49:36.493Z,2.40
2022-10-13T05:52:10.366Z,2.80
2022-10-13T05:54:41.853Z,2.77
2022-10-13T05:57:17.140Z,2.77
2022-10-13T05:59:53.099Z,2.57
2022-10-13T06:02:24.213Z,3.00
2022-10-13T06:04:55.779Z,2.60
2022-10-13T06:07:24.362Z,2.80
2022-10-13T06:09:53.027Z,3.40
2022-10-13T06:12:21.411Z,3.20
2022-10-13T06:14:51.180Z,3.20
2022-10-13T06:17:19.400Z,3.10
2022-10-13T06:19:47.511Z,3.13
2022-10-13T06:22:15.957Z,3.60
2022-10-13T06:24:44.075Z,3.70
2022-10-13T06:27:12.771Z,3.70
2022-10-13T06:29:41.178Z,2.90
2022-10-13T06:32:10.766Z,3.03
2022-10-13T06:34:39.205Z,3.40
2022-10-13T06:37:07.434Z,3.30
2022-10-13T06:39:35.599Z,3.20
2022-10-13T06:42:03.774Z,3.50
2022-10-13T06:44:32.909Z,2.80
2022-10-13T06:47:01.146Z,3.07
2022-10-13T06:49:30.705Z,3.00
2022-10-13T06:51:58.828Z,3.10
2022-10-13T06:54:26.913Z,2.93
2022-10-13T06:56:55.062Z,3.10
2022-10-13T06:59:23.410Z,2.83
2022-10-13T07:01:51.947Z,2.60
2022-10-13T07:04:20.111Z,2.60
2022-10-13T07:06:50.416Z,3.20
2022-10-13T07:09:20.139Z,2.80
2022-10-13T07:11:49.620Z,3.43
2022-10-13T07:14:17.848Z,3.03
2022-10-13T07:16:45.949Z,2.97
2022-10-13T07:19:14.147Z,2.83
2022-10-13T07:21:42.445Z,2.97
2022-10-13T07:24:12.880Z,2.70
2022-10-13T07:26:40.975Z,3.40
2022-10-13T07:29:09.825Z,2.67
2022-10-13T07:31:37.911Z,2.90
2022-10-13T07:34:06.808Z,2.47
2022-10-13T07:36:35.599Z,2.73
2022-10-13T07:39:04.152Z,2.70
2022-10-13T07:41:34.619Z,2.60
2022-10-13T07:44:02.765Z,2.83
2022-10-13T07:46:30.907Z,2.57
2022-10-13T07:49:00.390Z,2.60
2022-10-13T07:51:28.446Z,2.40
2022-10-13T07:53:56.575Z,2.30
2022-10-13T07:56:24.915Z,2.40
2022-10-13T07:58:54.583Z,2.43
2022-10-13T08:01:22.712Z,2.40
2022-10-13T08:03:50.946Z,2.70
2022-10-13T08:06:19.078Z,2.30
2022-10-13T08:08:47.390Z,2.90
2022-10-13T08:11:17.412Z,2.60
2022-10-13T08:13:49.116Z,3.00
2022-10-13T08:16:19.163Z,2.90
2022-10-13T08:18:47.879Z,2.60
2022-10-13T08:21:56.766Z,2.47
2022-10-13T08:24:06.940Z,2.60
2022-10-13T08:26:35.270Z,2.63
2022-10-13T08:29:20.832Z,2.60
2022-10-13T08:31:52.024Z,2.70
2022-10-13T08:34:20.484Z,2.33
2022-10-13T08:36:48.961Z,2.50
2022-10-13T08:39:17.140Z,2.40
2022-10-13T08:41:45.932Z,2.90
2022-10-13T08:47:19.759Z,3.10
2022-10-13T08:49:47.895Z,2.70
2022-10-13T08:52:20.972Z,3.00
2022-10-13T08:54:49.605Z,2.50
2022-10-13T08:57:18.793Z,3.37
2022-10-13T08:59:47.834Z,2.90
2022-10-13T09:02:25.143Z,3.07
2022-10-13T09:04:54.754Z,2.70
2022-10-13T09:07:27.821Z,2.90
2022-10-13T09:09:56.751Z,2.70
2022-10-13T09:12:26.080Z,2.60
2022-10-13T09:15:05.182Z,2.80
2022-10-13T09:17:35.759Z,2.70
2022-10-13T09:20:08.479Z,2.60
2022-10-13T09:22:37.782Z,2.70
2022-10-13T09:25:20.010Z,2.50
2022-10-13T09:27:51.247Z,2.50
2022-10-13T09:30:35.082Z,2.63
2022-10-13T09:33:24.224Z,2.80
2022-10-13T09:36:11.896Z,2.67
2022-10-13T09:38:41.704Z,2.80
2022-10-13T09:41:17.984Z,3.00
2022-10-13T09:44:01.389Z,2.60
2022-10-13T09:46:32.877Z,2.80
2022-10-13T09:49:06.249Z,3.03
2022-10-13T09:51:38.853Z,3.50
2022-10-13T09:54:08.379Z,5.37
2022-10-13T09:56:42.896Z,5.30
2022-10-13T09:59:22.982Z,3.77
2022-10-13T10:01:54.321Z,3.47
2022-10-13T10:04:27.807Z,3.30
2022-10-13T10:06:56.369Z,2.70
2022-10-13T10:09:35.564Z,3.20
2022-10-13T10:12:05.369Z,3.57
2022-10-13T10:14:35.474Z,3.03
2022-10-13T10:17:14.083Z,3.80
2022-10-13T10:19:59.866Z,3.10
2022-10-13T10:22:38.820Z,2.80
2022-10-13T10:25:23.611Z,3.57
2022-10-13T10:28:04.459Z,3.30
2022-10-13T10:30:35.279Z,3.00
2022-10-13T10:33:08.777Z,3.30
2022-10-13T10:35:46.557Z,2.93
2022-10-13T10:38:30.463Z,3.17
2022-10-13T10:41:06.317Z,3.43
2022-10-13T10:43:50.819Z,3.07
2022-10-13T10:46:23.998Z,2.83
2022-10-13T10:48:56.157Z,3.13
2022-10-13T10:51:32.205Z,2.80
2022-10-13T10:54:10.920Z,3.13
2022-10-13T10:56:41.878Z,2.90
2022-10-13T10:59:23.890Z,2.50
2022-10-13T11:02:03.501Z,2.73
2022-10-13T11:04:41.450Z,2.90
2022-10-13T11:07:16.002Z,2.77
2022-10-13T11:10:05.144Z,2.80
2022-10-13T11:13:22.427Z,3.07
2022-10-13T11:15:50.983Z,2.70
2022-10-13T11:19:05.922Z,2.73
2022-10-13T11:22:23.850Z,2.90
2022-10-13T11:25:12.850Z,2.60
2022-10-13T11:27:43.062Z,2.73
2022-10-13T11:30:47.549Z,2.70
2022-10-13T11:33:52.764Z,2.70
2022-10-13T11:36:56.806Z,3.00
2022-10-13T11:40:06.627Z,2.80
2022-10-13T11:43:05.269Z,2.53
2022-10-13T11:46:24.115Z,2.90
2022-10-13T11:49:40.210Z,2.80
2022-10-13T11:52:23.787Z,3.33
2022-10-13T11:54:56.601Z,2.80
2022-10-13T11:57:29.326Z,2.80
2022-10-13T11:59:58.230Z,2.70
2022-10-13T12:02:28.448Z,2.60
2022-10-13T12:05:06.976Z,2.60
2022-10-13T12:07:38.160Z,2.80
2022-10-13T12:10:16.223Z,2.67
2022-10-13T12:12:50.912Z,2.80
2022-10-13T12:15:32.488Z,2.70
2022-10-13T12:18:00.926Z,2.50
2022-10-13T12:20:31.171Z,2.70
2022-10-13T12:22:59.730Z,2.57
2022-10-13T12:25:31.166Z,2.77
2022-10-13T12:28:01.932Z,2.60
2022-10-13T12:30:31.823Z,2.50
2022-10-13T12:33:01.424Z,2.60
2022-10-13T12:35:31.971Z,2.50
2022-10-13T12:38:03.770Z,2.70
2022-10-13T12:40:32.224Z,2.60
2022-10-13T12:43:02.540Z,2.60
2022-10-13T12:45:34.168Z,2.60
2022-10-13T12:48:02.461Z,3.07
2022-10-13T12:50:37.350Z,2.40
2022-10-13T12:53:13.486Z,2.40
2022-10-13T12:55:50.760Z,2.40
2022-10-13T12:58:29.768Z,2.30
2022-10-13T13:01:04.319Z,2.47
2022-10-13T13:03:32.582Z,2.33
2022-10-13T13:06:22.621Z,2.20
2022-10-13T13:09:29.233Z,2.67
2022-10-13T13:12:22.735Z,2.10
2022-10-13T13:14:55.293Z,2.37
2022-10-13T13:20:27.551Z,3.07
2022-10-13T13:22:56.178Z,2.50
2022-10-13T13:25:25.161Z,2.63
2022-10-13T13:27:54.110Z,2.60
2022-10-13T13:30:25.220Z,2.50
2022-10-13T13:32:53.349Z,2.50
2022-10-13T13:35:21.483Z,2.67
2022-10-13T13:37:51.469Z,3.00
2022-10-13T13:40:21.748Z,2.20
2022-10-13T13:42:50.185Z,2.63
2022-10-13T13:45:20.603Z,2.63
2022-10-13T13:47:50.513Z,2.60
2022-10-13T13:50:22.986Z,2.57
2022-10-13T13:52:51.171Z,2.30
2022-10-13T13:55:19.626Z,2.60
2022-10-13T13:57:47.679Z,2.60
2022-10-13T14:00:17.207Z,2.47
2022-10-13T14:02:46.340Z,2.40
2022-10-13T14:05:19.256Z,2.40
2022-10-13T14:07:47.455Z,2.30
2022-10-13T14:10:15.701Z,2.30
2022-10-13T14:12:44.506Z,2.37
2022-10-13T14:15:12.758Z,2.30
2022-10-13T14:17:41.058Z,2.60
2022-10-13T14:20:11.451Z,2.30
2022-10-13T14:22:41.130Z,2.40
2022-10-13T14:25:10.422Z,2.30
2022-10-13T14:27:38.815Z,2.30
2022-10-13T14:30:08.565Z,2.20
2022-10-13T14:32:38.797Z,2.10
2022-10-13T14:35:07.838Z,2.10
2022-10-13T14:37:36.265Z,2.70
2022-10-13T14:40:06.823Z,2.80
2022-10-13T14:42:35.443Z,2.50
2022-10-13T14:45:06.673Z,2.67
2022-10-13T14:47:35.108Z,3.10
2022-10-13T14:50:03.161Z,2.17
2022-10-13T14:52:31.237Z,2.10
2022-10-13T14:54:59.297Z,2.03
2022-10-13T14:57:29.009Z,2.10
2022-10-13T15:00:01.704Z,2.50
2022-10-13T15:02:30.640Z,2.93
2022-10-13T15:04:59.120Z,2.80
2022-10-13T15:07:27.593Z,2.67
2022-10-13T15:10:10.981Z,2.30
2022-10-13T15:12:40.438Z,2.60
2022-10-13T15:15:09.352Z,2.70
2022-10-13T15:17:38.107Z,3.00
2022-10-13T15:20:07.527Z,2.27
2022-10-13T15:22:35.888Z,2.33
2022-10-13T15:25:07.855Z,2.27
2022-10-13T15:27:40.845Z,2.27
2022-10-13T15:30:12.875Z,3.77
2022-10-13T15:32:41.081Z,5.70
2022-10-13T15:35:09.863Z,4.60
2022-10-13T15:37:38.107Z,3.77
2022-10-13T15:40:08.016Z,4.23
2022-10-13T15:42:36.404Z,5.63
2022-10-13T15:45:09.843Z,6.50
2022-10-13T15:47:40.350Z,4.07
2022-10-13T15:50:12.076Z,7.20
2022-10-13T15:52:40.989Z,8.13
2022-10-13T15:55:10.389Z,5.03
2022-10-13T15:57:38.590Z,3.90
2022-10-13T16:00:09.229Z,10.83
2022-10-13T16:02:37.482Z,11.73
2022-10-13T16:05:09.034Z,13.63
2022-10-13T16:07:37.244Z,11.50
2022-10-13T16:10:08.100Z,12.90
2022-10-13T16:12:36.288Z,5.83
2022-10-13T16:15:04.393Z,4.20
2022-10-13T16:17:32.811Z,4.00
2022-10-13T16:20:01.131Z,3.10
2022-10-13T16:22:31.034Z,5.80
2022-10-13T16:24:59.202Z,7.63
2022-10-13T16:27:31.114Z,4.60
2022-10-13T16:29:59.244Z,3.07
2022-10-13T16:32:27.464Z,4.77
2022-10-13T16:34:55.483Z,5.17
2022-10-13T16:37:24.111Z,5.17
2022-10-13T16:39:53.787Z,4.97
2022-10-13T16:42:21.879Z,3.47
2022-10-13T16:44:50.071Z,3.10
2022-10-13T16:47:18.846Z,2.83
2022-10-13T16:49:47.481Z,3.40
2022-10-13T16:52:15.612Z,3.17
2022-10-13T16:54:43.838Z,3.00
2022-10-13T16:57:13.324Z,2.80
2022-10-13T16:59:41.804Z,3.50
2022-10-13T17:02:15.547Z,3.87
2022-10-13T17:04:43.869Z,3.20
2022-10-13T17:07:12.067Z,3.33
2022-10-13T17:09:40.459Z,3.10
2022-10-13T17:12:08.985Z,4.00
2022-10-13T17:14:38.544Z,3.60
2022-10-13T17:17:06.714Z,3.93
2022-10-13T17:19:35.189Z,3.60
2022-10-13T17:22:03.317Z,3.10
2022-10-13T17:24:31.395Z,3.60
2022-10-13T17:26:59.507Z,3.30
2022-10-13T17:29:27.790Z,3.20
2022-10-13T17:31:57.369Z,3.57
2022-10-13T17:34:25.419Z,3.47
2022-10-13T17:36:53.711Z,3.40
2022-10-13T17:39:21.867Z,3.43
2022-10-13T17:41:50.121Z,3.33
2022-10-13T17:44:20.774Z,3.30
2022-10-13T17:46:49.745Z,3.10
2022-10-13T17:49:19.616Z,2.77
2022-10-13T17:51:51.024Z,2.93
2022-10-13T17:54:19.971Z,3.10
2022-10-13T17:56:48.970Z,3.03
2022-10-13T17:59:18.311Z,3.30
2022-10-13T18:01:46.777Z,3.50
2022-10-13T18:04:16.846Z,3.00
2022-10-13T18:06:47.246Z,4.00
2022-10-13T18:09:18.121Z,4.60
2022-10-13T18:11:50.715Z,4.73
2022-10-13T18:14:19.784Z,4.20
2022-10-13T18:16:48.938Z,3.53
2022-10-13T18:19:17.116Z,3.73
2022-10-13T18:21:46.731Z,3.90
2022-10-13T18:24:15.097Z,3.63
2022-10-13T18:26:43.187Z,3.70
2022-10-13T18:29:13.213Z,3.70
2022-10-13T18:31:42.723Z,3.70
2022-10-13T18:34:14.240Z,3.60
2022-10-13T18:36:44.955Z,4.47
2022-10-13T18:39:16.756Z,4.00
2022-10-13T18:41:45.174Z,3.57
2022-10-13T18:44:13.375Z,6.20
2022-10-13T18:46:41.963Z,3.97
2022-10-13T18:49:13.554Z,3.27
2022-10-13T18:51:42.101Z,3.73
2022-10-13T18:54:10.479Z,3.73
2022-10-13T18:56:40.515Z,3.50
2022-10-13T18:59:10.014Z,3.37
2022-10-13T19:01:40.867Z,3.33
2022-10-13T19:04:09.953Z,3.80
2022-10-13T19:06:38.993Z,3.53
2022-10-13T19:09:08.582Z,3.57
2022-10-13T19:11:37.669Z,3.63
2022-10-13T19:14:11.081Z,3.17
2022-10-13T19:16:40.978Z,3.87
2022-10-13T19:19:09.610Z,3.30
2022-10-13T19:21:38.388Z,3.40
2022-10-13T19:24:07.322Z,2.97
2022-10-13T19:26:37.055Z,3.27
2022-10-13T19:29:09.200Z,3.80
2022-10-13T19:31:38.563Z,3.50
2022-10-13T19:34:06.703Z,3.87
2022-10-13T19:36:37.757Z,3.73
2022-10-13T19:39:10.851Z,3.20
2022-10-13T19:41:42.278Z,3.30
2022-10-13T19:44:12.045Z,3.40
2022-10-13T19:46:40.779Z,3.20
2022-10-13T19:49:08.984Z,4.03
2022-10-13T19:51:38.038Z,4.63
2022-10-13T19:54:06.493Z,3.50
2022-10-13T19:56:34.643Z,3.50
2022-10-13T19:59:04.415Z,4.43
2022-10-13T20:01:39.913Z,3.30
2022-10-13T20:04:08.615Z,4.27
2022-10-13T20:06:37.286Z,3.60
2022-10-13T20:09:05.534Z,4.10
2022-10-13T20:11:33.997Z,3.40
2022-10-13T20:14:02.242Z,3.53
2022-10-13T20:16:30.451Z,3.90
2022-10-13T20:19:01.610Z,3.83
2022-10-13T20:21:30.441Z,4.57
2022-10-13T20:23:59.007Z,3.43
2022-10-13T20:26:27.382Z,4.03
2022-10-13T20:28:55.829Z,3.90
2022-10-13T20:31:24.386Z,4.10
2022-10-13T20:33:56.022Z,4.50
2022-10-13T20:36:26.932Z,3.73
2022-10-13T20:38:55.506Z,4.20
2022-10-13T20:41:25.674Z,3.70
2022-10-13T20:43:56.014Z,3.60
2022-10-13T20:46:24.839Z,4.13
2022-10-13T20:49:11.399Z,3.43
2022-10-13T20:51:42.118Z,3.03
2022-10-13T20:54:10.666Z,3.63
2022-10-13T20:56:38.954Z,3.47
2022-10-13T20:59:09.523Z,3.77
2022-10-13T21:01:38.392Z,3.80
2022-10-13T21:04:06.669Z,3.40
2022-10-13T21:06:36.116Z,3.33
2022-10-13T21:09:06.845Z,3.20
2022-10-13T21:11:35.923Z,3.70
2022-10-13T21:14:09.581Z,3.40
2022-10-13T21:16:38.707Z,4.00
2022-10-13T21:19:06.940Z,4.07
2022-10-13T21:21:36.358Z,3.20
2022-10-13T21:24:08.182Z,3.83
2022-10-13T21:26:36.613Z,3.80
2022-10-13T21:29:04.811Z,3.83
2022-10-13T21:31:32.922Z,4.00
2022-10-13T21:34:01.259Z,3.80
2022-10-13T21:36:30.919Z,3.97
2022-10-13T21:39:01.280Z,3.80
2022-10-13T21:41:31.682Z,4.57
2022-10-13T21:43:59.999Z,4.20
2022-10-13T21:46:29.776Z,3.93
2022-10-13T21:48:59.771Z,3.63
2022-10-13T21:51:30.435Z,3.70
2022-10-13T21:54:00.667Z,3.40
2022-10-13T21:56:31.117Z,4.90
2022-10-13T21:58:59.186Z,3.97
2022-10-13T22:01:27.679Z,3.50
2022-10-13T22:03:57.819Z,3.80
2022-10-13T22:06:26.782Z,4.07
2022-10-13T22:08:56.797Z,3.30
2022-10-13T22:11:26.579Z,3.40
2022-10-13T22:13:57.165Z,4.00
2022-10-13T22:16:27.483Z,3.50
2022-10-13T22:18:56.972Z,3.30
2022-10-13T22:21:27.380Z,3.87
2022-10-13T22:23:57.738Z,3.80
2022-10-13T22:26:25.818Z,3.77
2022-10-13T22:28:55.514Z,3.40
2022-10-13T22:31:23.582Z,3.70
2022-10-13T22:33:53.816Z,3.87
2022-10-13T22:36:23.994Z,3.90
2022-10-13T22:38:54.353Z,3.83
2022-10-13T22:41:22.799Z,3.30
2022-10-13T22:43:51.925Z,3.70
2022-10-13T22:46:25.067Z,3.67
2022-10-13T22:48:53.361Z,4.40
2022-10-13T22:51:23.916Z,4.13
2022-10-13T22:53:52.340Z,3.20
2022-10-13T22:56:22.190Z,4.27
2022-10-13T22:58:51.341Z,4.20
2022-10-13T23:01:21.717Z,3.63
2022-10-13T23:03:50.939Z,3.70
2022-10-13T23:06:21.089Z,3.50
2022-10-13T23:08:49.785Z,3.37
2022-10-13T23:11:18.281Z,3.40
2022-10-13T23:13:46.901Z,3.73
2022-10-13T23:16:17.229Z,3.67
2022-10-13T23:18:47.325Z,5.07
2022-10-13T23:21:17.556Z,3.47
2022-10-13T23:23:46.341Z,3.83
2022-10-13T23:26:16.899Z,3.93
2022-10-13T23:28:45.431Z,3.33
2022-10-13T23:31:15.283Z,3.87
2022-10-13T23:33:43.805Z,3.33
2022-10-13T23:36:16.357Z,3.50
2022-10-13T23:38:44.633Z,3.10
2022-10-13T23:41:14.599Z,3.20
2022-10-13T23:43:43.622Z,3.17
2022-10-13T23:46:12.319Z,3.70
2022-10-13T23:48:41.243Z,4.50
2022-10-13T23:51:10.956Z,3.60
2022-10-13T23:53:41.317Z,3.40
2022-10-13T23:56:12.146Z,3.90
2022-10-13T23:58:42.193Z,3.17
